createdAt,value
2023-07-18T00:01:57.985Z,45.63
2023-07-18T00:04:26.687Z,45.82
2023-07-18T00:06:53.474Z,45.75
2023-07-18T00:09:23.141Z,45.59
2023-07-18T00:11:50.456Z,45.53
2023-07-18T00:14:18.021Z,45.45
2023-07-18T00:16:45.550Z,45.65
2023-07-18T00:19:13.475Z,45.79
2023-07-18T00:21:40.601Z,45.43
2023-07-18T00:24:08.085Z,45.65
2023-07-18T00:26:35.455Z,45.30
2023-07-18T00:29:02.345Z,45.55
2023-07-18T00:31:29.251Z,45.55
2023-07-18T00:33:56.180Z,45.59
2023-07-18T00:36:23.057Z,45.47
2023-07-18T00:38:50.392Z,45.30
2023-07-18T00:41:17.448Z,45.56
2023-07-18T00:43:44.482Z,45.38
2023-07-18T00:46:12.932Z,45.31
2023-07-18T00:48:39.881Z,45.42
2023-07-18T00:51:08.440Z,45.32
2023-07-18T00:53:38.598Z,45.66
2023-07-18T00:56:05.906Z,45.93
2023-07-18T00:58:32.705Z,45.34
2023-07-18T01:01:01.657Z,45.21
2023-07-18T01:03:29.571Z,45.44
2023-07-18T01:05:56.426Z,45.56
2023-07-18T01:08:25.869Z,45.54
2023-07-18T01:10:53.063Z,45.66
2023-07-18T01:13:20.007Z,45.60
2023-07-18T01:15:47.958Z,45.76
2023-07-18T01:18:15.206Z,45.82
2023-07-18T01:20:45.586Z,45.17
2023-07-18T01:23:12.693Z,45.59
2023-07-18T01:25:39.836Z,45.34
2023-07-18T01:28:07.820Z,45.70
2023-07-18T01:30:34.860Z,45.51
2023-07-18T01:33:04.223Z,45.34
2023-07-18T01:35:31.495Z,45.69
2023-07-18T01:37:59.844Z,45.64
2023-07-18T01:40:27.557Z,45.73
2023-07-18T01:42:55.906Z,45.90
2023-07-18T01:45:24.640Z,45.46
2023-07-18T01:47:55.269Z,45.30
2023-07-18T01:50:22.102Z,45.93
2023-07-18T01:52:49.844Z,45.41
2023-07-18T01:55:17.388Z,45.20
2023-07-18T01:57:46.773Z,45.24
2023-07-18T02:00:20.053Z,45.46
2023-07-18T02:02:49.658Z,45.43
2023-07-18T02:05:18.492Z,45.66
2023-07-18T02:07:45.560Z,45.59
2023-07-18T02:10:12.680Z,45.30
2023-07-18T02:12:39.604Z,45.60
2023-07-18T02:15:06.885Z,45.83
2023-07-18T02:17:36.483Z,45.66
2023-07-18T02:20:06.976Z,45.49
2023-07-18T02:22:35.368Z,45.55
2023-07-18T02:25:03.859Z,45.60
2023-07-18T02:27:40.111Z,45.66
2023-07-18T02:30:11.520Z,46.14
2023-07-18T02:32:40.278Z,45.55
2023-07-18T02:35:11.739Z,45.72
2023-07-18T02:37:39.143Z,45.53
2023-07-18T02:40:10.731Z,45.68
2023-07-18T02:42:39.499Z,45.56
2023-07-18T02:45:10.130Z,45.99
2023-07-18T02:47:39.274Z,45.80
2023-07-18T02:50:07.129Z,46.05
2023-07-18T02:52:34.021Z,46.00
2023-07-18T02:55:00.904Z,45.77
2023-07-18T02:57:27.802Z,46.09
2023-07-18T02:59:54.702Z,46.20
2023-07-18T03:02:21.990Z,46.11
2023-07-18T03:04:49.981Z,46.17
2023-07-18T03:07:19.107Z,45.71
2023-07-18T03:09:46.967Z,45.82
2023-07-18T03:12:14.276Z,45.85
2023-07-18T03:14:41.060Z,45.88
2023-07-18T03:17:08.032Z,45.91
2023-07-18T03:19:34.912Z,46.11
2023-07-18T03:22:02.531Z,45.85
2023-07-18T03:24:29.382Z,45.72
2023-07-18T03:26:56.245Z,45.97
2023-07-18T03:29:24.172Z,45.98
2023-07-18T03:31:51.075Z,46.20
2023-07-18T03:34:17.725Z,46.24
2023-07-18T03:36:47.044Z,45.93
2023-07-18T03:39:15.182Z,46.13
2023-07-18T03:41:42.308Z,45.84
2023-07-18T03:44:09.538Z,46.20
2023-07-18T03:46:37.116Z,46.05
2023-07-18T03:49:05.327Z,46.10
2023-07-18T03:51:32.656Z,46.17
2023-07-18T03:54:04.407Z,46.42
2023-07-18T03:56:32.629Z,45.93
2023-07-18T03:58:59.709Z,46.19
2023-07-18T04:01:26.956Z,46.43
2023-07-18T04:03:54.054Z,46.46
2023-07-18T04:06:20.859Z,46.31
2023-07-18T04:08:47.598Z,45.93
2023-07-18T04:11:14.280Z,46.07
2023-07-18T04:13:40.904Z,46.07
2023-07-18T04:16:08.527Z,46.14
2023-07-18T04:18:35.588Z,46.23
2023-07-18T04:21:03.502Z,45.93
2023-07-18T04:23:31.213Z,46.47
2023-07-18T04:26:03.010Z,45.91
2023-07-18T04:28:35.197Z,45.85
2023-07-18T04:31:03.118Z,46.36
2023-07-18T04:33:35.121Z,45.96
2023-07-18T04:36:02.162Z,45.91
2023-07-18T04:38:32.091Z,46.04
2023-07-18T04:40:59.665Z,45.89
2023-07-18T04:43:26.771Z,46.06
2023-07-18T04:45:53.533Z,46.16
2023-07-18T04:48:21.101Z,46.07
2023-07-18T04:50:53.314Z,46.03
2023-07-18T04:53:20.377Z,46.04
2023-07-18T04:55:51.731Z,46.26
2023-07-18T04:58:19.257Z,46.26
2023-07-18T05:00:46.070Z,46.22
2023-07-18T05:03:12.996Z,46.26
2023-07-18T05:05:40.416Z,46.31
2023-07-18T05:08:07.106Z,46.37
2023-07-18T05:10:34.041Z,46.45
2023-07-18T05:13:00.827Z,46.39
2023-07-18T05:15:27.575Z,46.27
2023-07-18T05:17:54.353Z,46.16
2023-07-18T05:20:21.375Z,46.22
2023-07-18T05:22:48.218Z,46.48
2023-07-18T05:25:16.376Z,46.22
2023-07-18T05:27:43.597Z,46.52
2023-07-18T05:30:17.715Z,46.27
2023-07-18T05:32:46.199Z,46.42
2023-07-18T05:35:16.614Z,46.57
2023-07-18T05:37:44.618Z,46.57
2023-07-18T05:40:12.306Z,46.37
2023-07-18T05:42:40.188Z,46.62
2023-07-18T05:45:09.098Z,46.84
2023-07-18T05:47:36.671Z,46.77
2023-07-18T05:50:06.483Z,46.96
2023-07-18T05:52:34.019Z,46.84
2023-07-18T05:55:00.946Z,46.66
2023-07-18T05:57:28.009Z,46.84
2023-07-18T05:59:54.622Z,46.69
2023-07-18T06:02:22.587Z,46.71
2023-07-18T06:04:49.723Z,46.72
2023-07-18T06:07:17.028Z,46.92
2023-07-18T06:09:44.180Z,46.73
2023-07-18T06:12:11.292Z,47.07
2023-07-18T06:14:37.953Z,47.05
2023-07-18T06:17:05.173Z,46.69
2023-07-18T06:19:32.020Z,47.09
2023-07-18T06:21:58.854Z,47.12
2023-07-18T06:24:25.816Z,46.77
2023-07-18T06:26:52.900Z,46.96
2023-07-18T06:29:20.920Z,47.00
2023-07-18T06:31:48.932Z,46.88
2023-07-18T06:34:18.517Z,46.99
2023-07-18T06:36:46.883Z,47.02
2023-07-18T06:39:15.334Z,47.22
2023-07-18T06:41:42.438Z,47.11
2023-07-18T06:44:12.802Z,47.24
2023-07-18T06:46:41.801Z,47.37
2023-07-18T06:49:10.632Z,47.34
2023-07-18T06:51:37.370Z,47.27
2023-07-18T06:54:04.158Z,47.01
2023-07-18T06:56:30.901Z,47.18
2023-07-18T06:58:57.616Z,47.02
2023-07-18T07:01:24.450Z,46.91
2023-07-18T07:03:51.461Z,47.03
2023-07-18T07:06:19.359Z,47.20
2023-07-18T07:08:46.076Z,47.16
2023-07-18T07:11:12.722Z,47.22
2023-07-18T07:13:39.485Z,47.50
2023-07-18T07:16:06.314Z,47.33
2023-07-18T07:18:33.342Z,46.98
2023-07-18T07:21:01.306Z,47.15
2023-07-18T07:23:29.537Z,47.26
2023-07-18T07:25:56.599Z,47.11
2023-07-18T07:28:26.465Z,46.67
2023-07-18T07:30:53.270Z,46.92
2023-07-18T07:33:20.389Z,46.85
2023-07-18T07:35:47.250Z,46.65
2023-07-18T07:38:15.115Z,47.12
2023-07-18T07:40:41.738Z,46.92
2023-07-18T07:43:08.441Z,46.73
2023-07-18T07:45:35.138Z,46.69
2023-07-18T07:48:02.194Z,46.67
2023-07-18T07:50:29.028Z,46.59
2023-07-18T07:52:55.907Z,46.50
2023-07-18T07:55:23.076Z,46.50
2023-07-18T07:57:49.991Z,46.83
2023-07-18T08:00:17.273Z,47.16
2023-07-18T08:02:44.102Z,46.96
2023-07-18T08:05:10.854Z,47.24
2023-07-18T08:07:38.120Z,47.29
2023-07-18T08:10:05.339Z,47.21
2023-07-18T08:12:32.256Z,47.03
2023-07-18T08:14:58.919Z,47.46
2023-07-18T08:17:26.386Z,47.20
2023-07-18T08:19:53.333Z,47.27
2023-07-18T08:22:20.147Z,47.41
2023-07-18T08:24:46.964Z,47.17
2023-07-18T08:27:13.739Z,47.49
2023-07-18T08:29:43.205Z,47.19
2023-07-18T08:32:10.534Z,47.48
2023-07-18T08:34:37.470Z,47.57
2023-07-18T08:37:06.497Z,47.48
2023-07-18T08:39:33.398Z,47.45
2023-07-18T08:42:00.949Z,47.45
2023-07-18T08:44:27.816Z,47.60
2023-07-18T08:46:55.323Z,47.23
2023-07-18T08:49:24.818Z,47.62
2023-07-18T08:51:51.664Z,47.37
2023-07-18T08:54:18.740Z,47.38
2023-07-18T08:56:45.655Z,47.79
2023-07-18T08:59:13.866Z,47.69
2023-07-18T09:01:48.037Z,47.91
2023-07-18T09:04:15.204Z,48.01
2023-07-18T09:06:50.550Z,47.68
2023-07-18T09:09:22.454Z,47.71
2023-07-18T09:11:58.062Z,48.25
2023-07-18T09:14:31.863Z,48.18
2023-07-18T09:17:03.177Z,48.13
2023-07-18T09:19:44.599Z,48.13
2023-07-18T09:22:13.477Z,48.08
2023-07-18T09:24:41.688Z,48.13
2023-07-18T09:27:19.256Z,47.92
2023-07-18T09:29:47.432Z,48.00
2023-07-18T09:32:21.873Z,48.31
2023-07-18T09:35:01.730Z,48.10
2023-07-18T09:37:29.025Z,48.03
2023-07-18T09:39:56.013Z,48.11
2023-07-18T09:42:25.589Z,48.47
2023-07-18T09:44:54.045Z,48.27
2023-07-18T09:47:21.518Z,48.05
2023-07-18T09:49:48.945Z,48.54
2023-07-18T09:52:19.776Z,48.02
2023-07-18T09:54:47.683Z,48.46
2023-07-18T09:57:17.237Z,48.08
2023-07-18T09:59:44.829Z,47.99
2023-07-18T10:02:12.473Z,48.06
2023-07-18T10:04:39.488Z,48.25
2023-07-18T10:07:09.929Z,47.57
2023-07-18T10:09:38.096Z,47.64
2023-07-18T10:12:04.801Z,47.86
2023-07-18T10:14:48.432Z,47.50
2023-07-18T10:17:42.978Z,47.47
2023-07-18T10:20:14.472Z,47.45
2023-07-18T10:22:54.405Z,47.57
2023-07-18T10:25:21.895Z,47.69
2023-07-18T10:27:49.828Z,47.66
2023-07-18T10:30:18.695Z,47.95
2023-07-18T10:32:53.959Z,47.62
2023-07-18T10:35:23.841Z,47.62
2023-07-18T10:37:58.533Z,47.35
2023-07-18T10:40:38.083Z,47.54
2023-07-18T10:43:09.951Z,47.13
2023-07-18T10:45:41.509Z,47.51
2023-07-18T10:48:20.448Z,47.27
2023-07-18T10:50:49.153Z,47.38
2023-07-18T10:53:20.661Z,47.24
2023-07-18T10:55:48.878Z,47.29
2023-07-18T10:58:20.384Z,47.36
2023-07-18T11:00:49.166Z,47.63
2023-07-18T11:03:23.331Z,47.54
2023-07-18T11:05:51.885Z,47.37
2023-07-18T11:08:29.342Z,47.56
2023-07-18T11:10:59.348Z,47.48
2023-07-18T11:13:33.902Z,47.81
2023-07-18T11:16:09.339Z,47.65
2023-07-18T11:18:37.808Z,47.81
2023-07-18T11:21:09.042Z,47.79
2023-07-18T11:23:37.626Z,47.36
2023-07-18T11:26:15.915Z,47.66
2023-07-18T11:28:44.777Z,47.67
2023-07-18T11:31:41.131Z,47.68
2023-07-18T11:34:10.241Z,47.40
2023-07-18T11:36:38.350Z,47.41
2023-07-18T11:39:22.072Z,47.44
2023-07-18T11:41:49.864Z,47.48
2023-07-18T11:44:25.220Z,47.08
2023-07-18T11:46:53.835Z,47.09
2023-07-18T11:49:36.945Z,47.33
2023-07-18T11:52:06.708Z,47.15
2023-07-18T11:54:37.154Z,47.29
2023-07-18T11:57:06.064Z,47.20
2023-07-18T11:59:33.691Z,47.23
2023-07-18T12:02:01.535Z,47.02
2023-07-18T12:04:28.247Z,47.28
2023-07-18T12:06:55.470Z,46.90
2023-07-18T12:09:22.580Z,47.12
2023-07-18T12:11:49.470Z,46.57
2023-07-18T12:14:16.345Z,46.58
2023-07-18T12:16:43.480Z,46.75
2023-07-18T12:19:11.131Z,46.71
2023-07-18T12:21:37.929Z,47.19
2023-07-18T12:24:05.536Z,47.12
2023-07-18T12:26:32.547Z,47.08
2023-07-18T12:28:59.312Z,47.11
2023-07-18T12:31:26.561Z,47.09
2023-07-18T12:33:53.522Z,47.39
2023-07-18T12:36:20.997Z,47.18
2023-07-18T12:38:48.040Z,46.99
2023-07-18T12:41:14.828Z,46.81
2023-07-18T12:43:41.617Z,46.99
2023-07-18T12:46:08.409Z,47.17
2023-07-18T12:48:35.378Z,47.06
2023-07-18T12:51:04.248Z,46.90
2023-07-18T12:53:31.050Z,47.46
2023-07-18T12:55:57.723Z,47.38
2023-07-18T12:58:24.491Z,46.91
2023-07-18T13:00:51.353Z,46.97
2023-07-18T13:03:18.364Z,46.72
2023-07-18T13:05:45.092Z,46.88
2023-07-18T13:08:12.407Z,46.95
2023-07-18T13:10:39.109Z,47.37
2023-07-18T13:13:07.605Z,47.16
2023-07-18T13:15:34.493Z,47.28
2023-07-18T13:18:01.428Z,47.33
2023-07-18T13:20:28.829Z,47.04
2023-07-18T13:22:56.898Z,46.85
2023-07-18T13:25:23.637Z,47.07
2023-07-18T13:27:50.269Z,47.20
2023-07-18T13:30:17.780Z,47.25
2023-07-18T13:32:46.558Z,47.27
2023-07-18T13:35:13.443Z,47.43
2023-07-18T13:37:40.087Z,47.23
2023-07-18T13:40:08.288Z,47.18
2023-07-18T13:42:35.068Z,47.27
2023-07-18T13:45:01.916Z,47.05
2023-07-18T13:47:30.950Z,47.08
2023-07-18T13:49:57.958Z,46.82
2023-07-18T13:52:24.757Z,47.33
2023-07-18T13:54:51.542Z,47.44
2023-07-18T13:57:18.298Z,47.31
2023-07-18T13:59:45.290Z,47.19
2023-07-18T14:02:12.985Z,47.03
2023-07-18T14:04:40.857Z,47.12
2023-07-18T14:07:07.618Z,47.35
2023-07-18T14:09:34.407Z,47.42
2023-07-18T14:12:02.223Z,47.23
2023-07-18T14:14:29.105Z,47.49
2023-07-18T14:16:55.897Z,47.31
2023-07-18T14:19:22.714Z,47.22
2023-07-18T14:21:49.932Z,46.98
2023-07-18T14:24:16.623Z,46.84
2023-07-18T14:26:45.076Z,47.13
2023-07-18T14:29:11.925Z,46.76
2023-07-18T14:31:39.117Z,46.88
2023-07-18T14:34:07.317Z,47.23
2023-07-18T14:36:34.821Z,46.81
2023-07-18T14:39:01.849Z,46.96
2023-07-18T14:41:28.599Z,46.70
2023-07-18T14:43:55.385Z,46.62
2023-07-18T14:46:23.513Z,46.70
2023-07-18T14:48:50.832Z,46.63
2023-07-18T14:51:17.771Z,46.45
2023-07-18T14:53:44.654Z,46.76
2023-07-18T14:56:11.260Z,46.39
2023-07-18T14:58:38.062Z,46.57
2023-07-18T15:01:05.072Z,46.75
2023-07-18T15:03:31.877Z,46.66
2023-07-18T15:05:59.681Z,46.57
2023-07-18T15:08:26.538Z,46.14
2023-07-18T15:10:53.375Z,46.02
2023-07-18T15:13:20.307Z,46.38
2023-07-18T15:15:47.181Z,46.18
2023-07-18T15:18:16.540Z,46.09
2023-07-18T15:20:43.695Z,46.41
2023-07-18T15:23:10.627Z,46.11
2023-07-18T15:25:37.652Z,46.07
2023-07-18T15:28:04.876Z,46.25
2023-07-18T15:30:31.488Z,45.66
2023-07-18T15:33:08.850Z,45.73
2023-07-18T15:35:39.300Z,45.78
2023-07-18T15:38:06.316Z,46.19
2023-07-18T15:40:33.119Z,45.64
2023-07-18T15:43:00.380Z,45.78
2023-07-18T15:45:27.182Z,46.01
2023-07-18T15:47:53.996Z,45.48
2023-07-18T15:50:21.779Z,45.91
2023-07-18T15:52:48.422Z,45.69
2023-07-18T15:55:15.476Z,45.60
2023-07-18T15:57:42.344Z,45.43
2023-07-18T16:00:10.173Z,45.96
2023-07-18T16:02:37.706Z,45.44
2023-07-18T16:05:05.230Z,45.96
2023-07-18T16:07:31.985Z,45.72
2023-07-18T16:09:59.385Z,46.14
2023-07-18T16:12:26.149Z,45.68
2023-07-18T16:14:52.928Z,45.66
2023-07-18T16:17:19.919Z,45.57
2023-07-18T16:19:51.680Z,45.91
2023-07-18T16:22:19.436Z,45.70
2023-07-18T16:24:47.544Z,46.13
2023-07-18T16:27:15.456Z,45.77
2023-07-18T16:29:42.628Z,46.12
2023-07-18T16:32:09.621Z,45.89
2023-07-18T16:34:37.588Z,45.57
2023-07-18T16:37:04.431Z,45.63
2023-07-18T16:39:31.340Z,45.68
2023-07-18T16:42:06.365Z,46.04
2023-07-18T16:44:40.752Z,45.76
2023-07-18T16:47:07.763Z,45.69
2023-07-18T16:49:35.089Z,45.98
2023-07-18T16:52:01.709Z,46.04
2023-07-18T16:54:28.405Z,45.47
2023-07-18T16:56:55.095Z,45.39
2023-07-18T16:59:21.902Z,45.76
2023-07-18T17:01:48.679Z,45.36
2023-07-18T17:04:15.449Z,44.75
2023-07-18T17:06:42.660Z,44.24
2023-07-18T17:09:09.671Z,44.25
2023-07-18T17:11:37.008Z,44.20
2023-07-18T17:14:03.709Z,43.89
2023-07-18T17:16:30.417Z,44.02
2023-07-18T17:18:57.266Z,43.69
2023-07-18T17:21:24.054Z,43.83
2023-07-18T17:23:50.884Z,43.73
2023-07-18T17:26:18.100Z,43.63
2023-07-18T17:28:44.994Z,43.69
2023-07-18T17:31:12.127Z,43.40
2023-07-18T17:33:39.211Z,43.38
2023-07-18T17:36:06.982Z,43.23
2023-07-18T17:38:34.313Z,43.47
2023-07-18T17:41:01.351Z,43.45
2023-07-18T17:43:28.089Z,43.90
2023-07-18T17:45:54.791Z,43.53
2023-07-18T17:48:21.554Z,43.22
2023-07-18T17:50:48.186Z,43.22
2023-07-18T17:53:15.936Z,43.19
2023-07-18T17:55:44.507Z,43.21
2023-07-18T17:58:11.366Z,43.47
2023-07-18T18:00:38.320Z,43.33
2023-07-18T18:03:05.628Z,43.45
2023-07-18T18:05:46.459Z,43.49
2023-07-18T18:08:15.333Z,43.57
2023-07-18T18:10:43.591Z,43.38
2023-07-18T18:13:10.377Z,43.28
2023-07-18T18:15:41.210Z,43.21
2023-07-18T18:18:12.901Z,43.00
2023-07-18T18:20:42.976Z,43.57
2023-07-18T18:23:13.073Z,43.36
2023-07-18T18:25:47.430Z,43.08
2023-07-18T18:28:16.226Z,43.02
2023-07-18T18:30:47.083Z,43.32
2023-07-18T18:33:13.865Z,43.35
2023-07-18T18:35:40.826Z,43.31
2023-07-18T18:38:07.553Z,43.18
2023-07-18T18:40:34.203Z,43.44
2023-07-18T18:43:00.892Z,43.19
2023-07-18T18:45:27.811Z,42.98
2023-07-18T18:47:54.698Z,43.30
2023-07-18T18:50:21.440Z,43.31
2023-07-18T18:52:48.343Z,43.02
2023-07-18T18:55:20.191Z,43.35
2023-07-18T18:57:48.586Z,43.55
2023-07-18T19:00:16.005Z,43.47
2023-07-18T19:02:43.729Z,43.39
2023-07-18T19:05:11.247Z,43.64
2023-07-18T19:07:38.806Z,43.50
2023-07-18T19:10:05.868Z,43.75
2023-07-18T19:12:32.704Z,44.10
2023-07-18T19:14:59.507Z,43.80
2023-07-18T19:17:26.545Z,43.86
2023-07-18T19:19:53.319Z,43.89
2023-07-18T19:22:20.820Z,43.82
2023-07-18T19:24:47.746Z,43.72
2023-07-18T19:27:15.337Z,43.70
2023-07-18T19:29:43.304Z,44.07
2023-07-18T19:32:11.216Z,43.92
2023-07-18T19:34:44.601Z,43.98
2023-07-18T19:37:11.515Z,44.04
2023-07-18T19:39:38.397Z,43.56
2023-07-18T19:42:06.803Z,43.68
2023-07-18T19:44:35.318Z,43.89
2023-07-18T19:47:02.390Z,43.94
2023-07-18T19:49:29.519Z,44.27
2023-07-18T19:51:57.859Z,44.07
2023-07-18T19:54:27.749Z,44.12
2023-07-18T19:56:54.974Z,44.28
2023-07-18T19:59:21.871Z,44.67
2023-07-18T20:01:49.004Z,44.58
2023-07-18T20:04:16.019Z,44.35
2023-07-18T20:06:43.010Z,44.78
2023-07-18T20:09:10.118Z,44.87
2023-07-18T20:11:37.426Z,44.83
2023-07-18T20:14:04.132Z,44.99
2023-07-18T20:16:31.466Z,44.89
2023-07-18T20:19:02.445Z,45.18
2023-07-18T20:21:30.621Z,45.00
2023-07-18T20:23:58.007Z,45.22
2023-07-18T20:26:26.245Z,45.37
2023-07-18T20:28:53.089Z,45.94
2023-07-18T20:31:20.732Z,46.04
2023-07-18T20:33:48.358Z,45.82
2023-07-18T20:36:15.452Z,45.24
2023-07-18T20:38:43.957Z,45.53
2023-07-18T20:41:10.977Z,44.86
2023-07-18T20:43:37.635Z,45.21
2023-07-18T20:46:05.221Z,45.31
2023-07-18T20:48:35.384Z,45.11
2023-07-18T20:51:02.314Z,44.78
2023-07-18T20:53:30.302Z,45.07
2023-07-18T20:55:57.788Z,45.05
2023-07-18T20:58:24.921Z,45.44
2023-07-18T21:00:51.741Z,45.50
2023-07-18T21:03:18.581Z,45.71
2023-07-18T21:05:49.827Z,45.32
2023-07-18T21:08:18.211Z,45.41
2023-07-18T21:10:45.408Z,45.33
2023-07-18T21:13:12.585Z,45.30
2023-07-18T21:15:39.424Z,45.52
2023-07-18T21:18:06.305Z,45.57
2023-07-18T21:20:33.438Z,45.62
2023-07-18T21:23:00.926Z,45.39
2023-07-18T21:25:28.509Z,46.08
2023-07-18T21:27:55.348Z,46.09
2023-07-18T21:30:22.026Z,46.04
2023-07-18T21:32:48.756Z,45.44
2023-07-18T21:35:16.055Z,45.38
2023-07-18T21:37:42.809Z,45.64
2023-07-18T21:40:10.006Z,45.70
2023-07-18T21:42:36.803Z,45.55
2023-07-18T21:45:03.597Z,45.61
2023-07-18T21:47:30.392Z,45.94
2023-07-18T21:49:57.248Z,45.65
2023-07-18T21:52:24.179Z,45.84
2023-07-18T21:54:51.010Z,45.71
2023-07-18T21:57:17.772Z,45.92
2023-07-18T21:59:44.693Z,46.05
2023-07-18T22:02:13.130Z,45.70
2023-07-18T22:04:40.507Z,46.10
2023-07-18T22:07:09.173Z,45.69
2023-07-18T22:09:36.338Z,45.81
2023-07-18T22:12:05.084Z,45.67
2023-07-18T22:14:32.963Z,45.82
2023-07-18T22:16:59.797Z,45.67
2023-07-18T22:19:26.813Z,45.82
2023-07-18T22:21:54.149Z,46.00
2023-07-18T22:24:21.148Z,46.09
2023-07-18T22:26:47.888Z,46.13
2023-07-18T22:29:14.807Z,45.75
2023-07-18T22:31:42.502Z,45.87
2023-07-18T22:34:09.327Z,45.80
2023-07-18T22:36:36.071Z,46.08
2023-07-18T22:39:02.933Z,45.92
2023-07-18T22:41:29.873Z,45.67
2023-07-18T22:43:57.760Z,46.04
2023-07-18T22:46:24.968Z,45.75
2023-07-18T22:48:52.147Z,45.97
2023-07-18T22:51:19.346Z,46.10
2023-07-18T22:53:46.198Z,45.66
2023-07-18T22:56:13.051Z,45.99
2023-07-18T22:58:39.722Z,46.19
2023-07-18T23:01:06.614Z,46.02
2023-07-18T23:03:34.528Z,46.17
2023-07-18T23:06:01.895Z,45.77
2023-07-18T23:08:29.108Z,46.29
2023-07-18T23:10:56.109Z,45.81
2023-07-18T23:13:24.364Z,46.10
2023-07-18T23:15:51.417Z,46.66
2023-07-18T23:18:18.279Z,46.53
2023-07-18T23:20:45.900Z,45.99
2023-07-18T23:23:12.871Z,45.96
2023-07-18T23:25:40.138Z,46.38
2023-07-18T23:28:06.901Z,46.07
2023-07-18T23:30:33.644Z,46.67
2023-07-18T23:33:00.423Z,46.61
2023-07-18T23:35:27.673Z,46.23
2023-07-18T23:37:56.942Z,46.48
2023-07-18T23:40:23.922Z,46.30
2023-07-18T23:42:50.764Z,46.35
2023-07-18T23:45:17.942Z,46.03
2023-07-18T23:47:44.678Z,46.27
2023-07-18T23:50:11.682Z,46.35
2023-07-18T23:52:40.111Z,46.13
2023-07-18T23:55:07.921Z,46.03
2023-07-18T23:57:34.764Z,46.60
